Time;durP1;ratioP1;P1;durP2;ratioP2;P2;SDS_P1;SDS_P2;PMS_P1;PMS_P2;Temp;Humidity;BMP_temperature;BMP_pressure;BME280_temperature;BME280_humidity;BME280_pressure;Samples;Min_cycle;Max_cycle;Signal;HPM_P1;HPM_P2
2022/05/23 00:02:08;;;;;;;4.00;2.80;;;15.80;99.90;;;;;;5053209;28;20205;-80
2022/05/23 00:04:35;;;;;;;4.37;3.27;;;15.80;99.90;;;;;;5054095;28;20196;-80
2022/05/23 00:07:02;;;;;;;4.93;3.30;;;15.80;99.90;;;;;;5055085;28;20258;-79
2022/05/23 00:09:29;;;;;;;4.93;3.13;;;15.80;99.90;;;;;;5055003;28;20180;-81
2022/05/23 00:11:54;;;;;;;4.30;2.87;;;15.80;99.90;;;;;;5056031;28;20665;-80
2022/05/23 00:14:20;;;;;;;4.57;2.77;;;15.80;99.90;;;;;;5060921;28;20196;-81
2022/05/23 00:16:49;;;;;;;4.47;2.87;;;15.80;99.90;;;;;;5054984;28;20753;-79
2022/05/23 00:19:15;;;;;;;8.77;3.33;;;15.70;99.90;;;;;;5057319;28;20183;-80
2022/05/23 00:21:45;;;;;;;5.50;2.90;;;15.70;99.90;;;;;;5056161;28;20219;-80
2022/05/23 00:24:15;;;;;;;6.10;3.07;;;15.70;99.90;;;;;;5055082;28;20222;-79
2022/05/23 00:26:42;;;;;;;4.03;3.20;;;15.70;99.90;;;;;;5059784;28;20208;-80
2022/05/23 00:29:09;;;;;;;3.77;3.37;;;15.70;99.90;;;;;;5054201;28;20241;-80
2022/05/23 00:31:35;;;;;;;5.63;2.90;;;15.70;99.90;;;;;;5062586;28;20182;-80
2022/05/23 00:36:45;;;;;;;6.23;2.90;;;15.70;99.90;;;;;;5062492;28;20744;-79
2022/05/23 00:39:10;;;;;;;5.77;3.50;;;15.70;99.90;;;;;;5059670;28;20195;-80
2022/05/23 00:44:30;;;;;;;7.63;3.33;;;15.70;99.90;;;;;;5056536;28;20292;-80
2022/05/23 00:47:17;;;;;;;4.10;3.03;;;15.70;99.90;;;;;;5062228;28;20176;-79
2022/05/23 00:49:42;;;;;;;4.60;2.87;;;15.60;99.90;;;;;;5058955;28;20172;-79
2022/05/23 00:52:13;;;;;;;4.80;3.17;;;15.60;99.90;;;;;;5063301;28;20194;-79
2022/05/23 00:54:46;;;;;;;8.47;3.33;;;15.60;99.90;;;;;;5061589;28;20199;-80
2022/05/23 00:57:16;;;;;;;5.43;3.40;;;15.60;99.90;;;;;;5059885;28;20692;-80
2022/05/23 00:59:42;;;;;;;5.17;3.17;;;15.60;99.90;;;;;;5059387;28;20180;-80
2022/05/23 01:02:10;;;;;;;8.40;3.30;;;15.50;99.90;;;;;;5059976;28;20207;-80
2022/05/23 01:04:37;;;;;;;6.23;2.83;;;15.50;99.90;;;;;;5059027;28;20721;-80
2022/05/23 01:07:03;;;;;;;7.80;2.83;;;15.50;99.90;;;;;;5060497;28;20215;-80
2022/05/23 01:09:28;;;;;;;5.17;3.43;;;15.50;99.90;;;;;;5058417;28;20184;-80
2022/05/23 01:11:56;;;;;;;6.83;3.30;;;15.50;99.90;;;;;;5061842;28;20187;-80
2022/05/23 01:14:22;;;;;;;3.90;2.90;;;15.50;99.90;;;;;;5058497;28;20199;-80
2022/05/23 01:16:48;;;;;;;4.87;3.00;;;15.50;99.90;;;;;;5065250;28;20234;-79
2022/05/23 01:19:14;;;;;;;8.90;3.90;;;15.50;99.90;;;;;;5062609;28;20207;-80
2022/05/23 01:21:59;;;;;;;3.73;3.10;;;15.50;99.90;;;;;;5062432;28;20595;-79
2022/05/23 01:24:34;;;;;;;6.67;3.30;;;15.50;99.90;;;;;;5056136;28;20187;-78
2022/05/23 01:27:01;;;;;;;5.63;3.30;;;15.50;99.90;;;;;;5064056;28;20182;-80
2022/05/23 01:29:26;;;;;;;4.97;3.20;;;15.50;99.90;;;;;;5061570;28;20182;-81
2022/05/23 01:31:55;;;;;;;4.47;3.30;;;15.50;99.90;;;;;;5064788;28;20184;-80
2022/05/23 01:34:21;;;;;;;4.43;3.00;;;15.40;99.90;;;;;;5056811;28;20761;-80
2022/05/23 01:36:46;;;;;;;7.67;3.30;;;15.40;99.90;;;;;;5062592;28;20183;-80
2022/05/23 01:39:12;;;;;;;4.13;2.77;;;15.40;99.90;;;;;;5060207;28;20188;-80
2022/05/23 01:41:38;;;;;;;4.13;3.00;;;15.50;99.90;;;;;;5063842;28;20188;-79
2022/05/23 01:44:03;;;;;;;4.67;3.33;;;15.40;99.90;;;;;;5062919;28;20196;-80
2022/05/23 01:46:29;;;;;;;4.77;3.10;;;15.40;99.90;;;;;;5062648;28;20267;-80
2022/05/23 01:48:55;;;;;;;5.10;3.20;;;15.40;99.90;;;;;;5060325;28;20230;-80
2022/05/23 01:51:20;;;;;;;6.97;3.23;;;15.40;99.90;;;;;;5064557;28;20270;-81
2022/05/23 01:53:46;;;;;;;8.57;3.13;;;15.40;99.90;;;;;;5056683;28;20213;-79
2022/05/23 01:56:12;;;;;;;4.50;2.90;;;15.40;99.90;;;;;;5068458;28;20179;-81
2022/05/23 02:01:21;;;;;;;5.73;3.17;;;15.40;99.90;;;;;;5052269;28;20205;-79
2022/05/23 02:03:48;;;;;;;5.73;2.80;;;15.40;99.90;;;;;;5056890;28;20306;-79
2022/05/23 02:06:13;;;;;;;4.93;2.50;;;15.40;99.90;;;;;;5054786;28;20175;-81
2022/05/23 02:08:39;;;;;;;3.83;2.30;;;15.50;99.90;;;;;;5056239;28;20215;-79
2022/05/23 02:11:06;;;;;;;5.60;2.83;;;15.50;99.90;;;;;;5057968;28;20175;-79
2022/05/23 02:13:40;;;;;;;6.50;2.37;;;15.60;96.10;;;;;;5054924;28;20203;-81
2022/05/23 02:16:06;;;;;;;4.50;2.27;;;15.60;4.60;;;;;;5057171;28;20268;-80
2022/05/23 02:18:32;;;;;;;3.50;2.07;;;15.60;14.10;;;;;;5056492;28;20180;-80
2022/05/23 02:20:58;;;;;;;4.23;2.90;;;15.70;75.30;;;;;;5055452;28;20214;-80
2022/05/23 02:23:24;;;;;;;3.60;2.80;;;15.70;99.90;;;;;;5055827;28;20207;-80
2022/05/23 02:25:50;;;;;;;5.03;2.80;;;15.70;99.90;;;;;;5059516;28;20195;-80
2022/05/23 02:28:15;;;;;;;5.40;2.73;;;15.70;99.90;;;;;;5057579;28;20189;-80
2022/05/23 02:30:41;;;;;;;5.00;2.63;;;15.70;99.90;;;;;;5057071;28;20191;-80
2022/05/23 02:33:07;;;;;;;5.37;2.77;;;15.70;99.90;;;;;;5055074;28;20756;-80
2022/05/23 02:35:33;;;;;;;3.60;2.63;;;15.70;99.90;;;;;;5052872;28;20215;-80
2022/05/23 02:37:58;;;;;;;4.70;3.10;;;15.70;99.90;;;;;;5056150;28;20255;-80
2022/05/23 02:40:24;;;;;;;4.93;3.10;;;15.70;99.90;;;;;;5057345;28;20186;-79
2022/05/23 02:42:50;;;;;;;5.20;2.57;;;15.60;99.90;;;;;;5053353;28;20207;-79
2022/05/23 02:45:16;;;;;;;4.23;2.70;;;15.60;99.90;;;;;;5055281;28;20278;-81
2022/05/23 02:47:43;;;;;;;3.80;2.20;;;15.60;99.90;;;;;;5051972;28;20222;-79
2022/05/23 02:50:11;;;;;;;4.20;2.57;;;15.70;99.90;;;;;;5056236;28;20176;-80
2022/05/23 02:52:37;;;;;;;5.70;3.00;;;15.60;99.90;;;;;;5055144;28;20176;-78
2022/05/23 02:55:04;;;;;;;5.27;2.67;;;15.60;99.90;;;;;;5053248;28;20199;-81
2022/05/23 02:57:29;;;;;;;4.57;2.27;;;15.60;99.90;;;;;;5054489;28;20235;-80
2022/05/23 02:59:55;;;;;;;4.07;2.97;;;15.60;99.90;;;;;;5053870;28;20184;-80
2022/05/23 03:05:06;;;;;;;6.27;2.73;;;15.50;99.90;;;;;;5053891;28;20723;-80
2022/05/23 03:07:31;;;;;;;3.60;2.77;;;15.50;99.90;;;;;;5056821;28;20671;-79
2022/05/23 03:09:57;;;;;;;3.90;3.03;;;15.50;99.90;;;;;;5056152;28;20183;-79
2022/05/23 03:12:23;;;;;;;3.83;2.67;;;15.50;99.90;;;;;;5057080;28;20187;-79
2022/05/23 03:14:49;;;;;;;3.10;2.50;;;15.40;99.90;;;;;;5054499;28;20661;-80
2022/05/23 03:17:14;;;;;;;4.47;2.50;;;15.40;99.90;;;;;;5057955;28;20233;-80
2022/05/23 03:19:40;;;;;;;3.17;2.60;;;15.40;99.90;;;;;;5055759;28;20211;-81
2022/05/23 03:27:38;;;;;;;5.87;2.73;;;15.30;99.90;;;;;;5068077;28;20316;-81
2022/05/23 03:30:05;;;;;;;3.50;2.30;;;15.20;99.90;;;;;;5071345;28;20199;-80
2022/05/23 03:32:31;;;;;;;4.47;2.87;;;15.20;99.90;;;;;;5069802;28;20175;-79
2022/05/23 03:34:57;;;;;;;3.43;2.40;;;15.10;99.90;;;;;;5066669;28;20207;-79
2022/05/23 03:37:23;;;;;;;2.63;2.27;;;15.10;99.90;;;;;;5068786;28;20221;-80
2022/05/23 03:39:49;;;;;;;4.30;2.50;;;15.10;99.90;;;;;;5065437;28;20179;-81
2022/05/23 03:42:14;;;;;;;3.27;2.50;;;15.10;99.90;;;;;;5065092;28;20203;-80
2022/05/23 03:44:40;;;;;;;4.57;2.60;;;15.10;99.90;;;;;;5058890;28;20199;-79
2022/05/23 03:47:06;;;;;;;2.93;2.30;;;15.10;99.90;;;;;;5063937;28;20193;-80
2022/05/23 03:49:32;;;;;;;3.50;2.53;;;15.00;99.90;;;;;;5067210;28;20191;-80
2022/05/23 03:51:59;;;;;;;4.77;2.60;;;15.00;99.90;;;;;;5065222;28;20184;-80
2022/05/23 03:54:25;;;;;;;3.00;2.30;;;14.90;99.90;;;;;;5065526;28;20203;-80
2022/05/23 03:56:51;;;;;;;5.07;2.20;;;14.90;99.90;;;;;;5065863;28;20200;-80
2022/05/23 03:59:16;;;;;;;4.47;2.60;;;14.90;99.90;;;;;;5069663;28;20251;-80
2022/05/23 04:01:42;;;;;;;4.23;2.80;;;14.90;99.90;;;;;;5066689;28;20180;-80
2022/05/23 04:04:07;;;;;;;8.73;2.73;;;14.80;99.90;;;;;;5065543;28;20204;-80
2022/05/23 04:06:35;;;;;;;5.37;2.30;;;14.80;99.90;;;;;;5064413;28;20195;-80
2022/05/23 04:09:01;;;;;;;5.30;2.40;;;14.80;99.90;;;;;;5062216;28;20179;-81
2022/05/23 04:11:26;;;;;;;4.70;2.83;;;14.80;99.90;;;;;;5065582;28;20176;-79
2022/05/23 04:13:52;;;;;;;8.17;2.60;;;14.70;99.90;;;;;;5064965;28;20665;-81
2022/05/23 04:16:18;;;;;;;3.27;2.77;;;14.70;99.90;;;;;;5066958;28;20233;-80
2022/05/23 04:18:43;;;;;;;4.10;2.70;;;14.70;99.90;;;;;;5061732;28;20200;-79
2022/05/23 04:21:09;;;;;;;3.70;2.20;;;14.60;99.90;;;;;;5065965;28;20186;-79
2022/05/23 04:23:34;;;;;;;3.90;2.57;;;14.70;99.90;;;;;;5065300;28;20218;-80
2022/05/23 04:26:09;;;;;;;4.27;2.70;;;14.70;99.90;;;;;;5061679;28;20179;-79
2022/05/23 04:28:36;;;;;;;3.90;2.80;;;14.70;99.90;;;;;;5069618;28;20170;-80
2022/05/23 04:31:02;;;;;;;4.93;2.47;;;14.60;99.90;;;;;;5066006;28;20175;-80
2022/05/23 04:36:13;;;;;;;4.13;2.70;;;14.70;99.90;;;;;;5061797;28;20179;-79
2022/05/23 04:38:38;;;;;;;3.30;2.80;;;14.70;99.90;;;;;;5065204;28;20181;-80
2022/05/23 04:41:07;;;;;;;3.23;2.80;;;14.70;99.90;;;;;;5067106;28;20183;-80
2022/05/23 04:43:33;;;;;;;7.53;2.83;;;14.70;99.90;;;;;;5059607;28;20212;-80
2022/05/23 04:45:59;;;;;;;5.50;2.70;;;14.70;99.90;;;;;;5058449;28;20179;-80
2022/05/23 04:51:09;;;;;;;5.20;2.70;;;14.70;99.90;;;;;;5070787;28;20186;-80
2022/05/23 04:53:34;;;;;;;6.83;2.80;;;14.70;99.90;;;;;;5072886;28;20200;-79
2022/05/23 04:56:00;;;;;;;4.10;2.80;;;14.80;99.90;;;;;;5062514;28;20183;-79
2022/05/23 04:58:26;;;;;;;7.83;3.07;;;14.80;99.90;;;;;;5060760;28;20211;-79
2022/05/23 05:00:53;;;;;;;3.37;2.60;;;14.80;99.90;;;;;;5062202;28;20184;-80
2022/05/23 05:03:19;;;;;;;4.40;3.00;;;14.90;99.90;;;;;;5062185;28;20215;-79
2022/05/23 05:05:45;;;;;;;4.97;3.50;;;14.90;99.90;;;;;;5059397;28;20199;-80
2022/05/23 05:08:11;;;;;;;4.27;3.00;;;15.00;99.90;;;;;;5062539;28;20218;-78
2022/05/23 05:10:37;;;;;;;3.57;2.87;;;15.00;99.90;;;;;;5054816;28;20200;-79
2022/05/23 05:13:03;;;;;;;5.10;2.87;;;15.00;99.90;;;;;;5060383;28;20184;-78
2022/05/23 05:15:28;;;;;;;2.83;2.50;;;15.10;99.90;;;;;;5057628;28;20188;-79
2022/05/23 05:17:55;;;;;;;3.53;3.17;;;15.20;99.90;;;;;;5060184;28;20187;-79
2022/05/23 05:20:21;;;;;;;4.93;2.80;;;15.20;99.90;;;;;;5057581;28;20179;-78
2022/05/23 05:22:47;;;;;;;4.57;3.03;;;15.20;99.90;;;;;;5055006;28;20559;-77
2022/05/23 05:25:14;;;;;;;4.47;3.00;;;15.30;99.90;;;;;;5053087;28;20179;-79
2022/05/23 05:27:40;;;;;;;6.17;2.97;;;15.30;99.90;;;;;;5052392;28;20176;-79
2022/05/23 05:30:10;;;;;;;3.73;2.70;;;15.40;99.90;;;;;;5058264;28;20237;-78
2022/05/23 05:32:50;;;;;;;8.80;2.87;;;15.50;99.90;;;;;;5050769;28;20261;-77
2022/05/23 05:35:20;;;;;;;4.87;3.17;;;15.50;99.90;;;;;;5050662;28;20191;-78
2022/05/23 05:37:56;;;;;;;4.77;2.70;;;15.60;99.90;;;;;;5048397;28;20260;-78
2022/05/23 05:40:26;;;;;;;3.43;2.87;;;15.70;99.90;;;;;;5047512;28;20184;-77
2022/05/23 05:42:58;;;;;;;5.87;3.30;;;15.70;99.90;;;;;;5046266;28;20211;-78
2022/05/23 05:45:33;;;;;;;3.67;2.83;;;15.80;99.90;;;;;;5043955;28;20203;-76
2022/05/23 05:48:00;;;;;;;3.33;2.30;;;15.80;99.90;;;;;;5054449;28;20683;-77
2022/05/23 05:50:35;;;;;;;6.30;3.00;;;15.90;99.90;;;;;;5053164;28;20183;-77
2022/05/23 05:53:08;;;;;;;4.13;2.90;;;16.00;99.90;;;;;;5054298;28;20176;-77
2022/05/23 05:55:34;;;;;;;3.43;2.87;;;16.00;99.90;;;;;;5054493;28;20163;-76
2022/05/23 05:57:59;;;;;;;5.73;2.80;;;16.00;99.90;;;;;;5053828;28;20184;-77
2022/05/23 06:00:25;;;;;;;3.87;2.47;;;16.10;99.90;;;;;;5054399;28;20180;-76
2022/05/23 06:02:51;;;;;;;4.13;2.80;;;16.10;99.90;;;;;;5054320;28;20207;-77
2022/05/23 06:05:17;;;;;;;4.20;2.57;;;16.20;99.90;;;;;;5054034;28;20180;-77
2022/05/23 06:13:11;;;;;;;3.20;2.90;;;16.40;99.90;;;;;;5054136;28;20245;-76
2022/05/23 06:15:36;;;;;;;3.37;2.70;;;16.40;99.90;;;;;;5054090;28;20184;-77
2022/05/23 06:18:02;;;;;;;3.80;2.87;;;16.50;99.90;;;;;;5052600;28;20271;-77
2022/05/23 06:20:27;;;;;;;4.00;2.90;;;16.60;99.90;;;;;;5053776;28;20247;-77
2022/05/23 06:22:53;;;;;;;5.10;2.90;;;16.60;99.90;;;;;;5053683;28;20286;-76
2022/05/23 06:25:19;;;;;;;3.70;3.00;;;16.70;99.90;;;;;;5053864;28;20176;-77
2022/05/23 06:27:45;;;;;;;3.33;2.43;;;16.70;99.90;;;;;;5052522;28;20634;-76
2022/05/23 06:30:13;;;;;;;2.90;2.57;;;16.80;99.90;;;;;;5052377;28;20175;-76
2022/05/23 06:32:39;;;;;;;6.07;2.80;;;16.90;99.90;;;;;;5053876;28;20182;-76
2022/05/23 06:35:08;;;;;;;3.30;2.10;;;16.90;99.90;;;;;;5053452;28;20215;-77
2022/05/23 06:37:35;;;;;;;6.73;2.93;;;17.00;99.90;;;;;;5054010;28;20699;-76
2022/05/23 06:40:06;;;;;;;5.47;2.90;;;17.00;99.90;;;;;;5053234;28;20300;-77
2022/05/23 06:42:32;;;;;;;5.50;2.53;;;17.10;99.90;;;;;;5053129;28;20780;-76
2022/05/23 06:44:58;;;;;;;5.30;2.57;;;17.20;99.90;;;;;;5051930;28;20581;-76
2022/05/23 06:47:24;;;;;;;8.90;2.97;;;17.30;99.90;;;;;;5053523;28;20236;-76
2022/05/23 06:49:49;;;;;;;5.20;2.73;;;17.40;99.90;;;;;;5052036;28;20725;-76
2022/05/23 06:52:15;;;;;;;4.03;2.50;;;17.50;99.90;;;;;;5053092;28;20643;-77
2022/05/23 06:54:42;;;;;;;5.70;2.80;;;17.50;99.90;;;;;;5051722;28;20691;-77
2022/05/23 06:57:07;;;;;;;3.33;2.70;;;17.60;99.90;;;;;;5053367;28;20179;-76
2022/05/23 06:59:33;;;;;;;4.37;2.40;;;17.70;99.90;;;;;;5053490;28;20584;-76
2022/05/23 07:01:59;;;;;;;6.30;2.33;;;17.80;99.90;;;;;;5053017;28;20268;-76
2022/05/23 07:04:25;;;;;;;4.30;2.30;;;17.90;99.90;;;;;;5053166;28;20607;-76
2022/05/23 07:12:23;;;;;;;2.97;2.00;;;18.10;99.90;;;;;;5053624;28;20162;-77
2022/05/23 07:14:51;;;;;;;2.83;1.90;;;18.20;99.90;;;;;;5054380;28;20564;-77
2022/05/23 07:17:17;;;;;;;3.27;1.73;;;18.20;99.90;;;;;;5054160;28;20167;-77
2022/05/23 07:19:43;;;;;;;3.47;1.87;;;18.30;21.80;;;;;;5053009;28;20218;-77
2022/05/23 07:22:09;;;;;;;3.27;1.80;;;18.40;1.00;;;;;;5053761;28;20294;-77
2022/05/23 07:24:35;;;;;;;4.83;2.00;;;18.40;1.00;;;;;;5057616;28;20214;-76
2022/05/23 07:27:02;;;;;;;7.13;2.17;;;18.50;99.90;;;;;;5057379;28;20163;-76
2022/05/23 07:29:28;;;;;;;2.40;1.90;;;18.60;99.90;;;;;;5055635;28;20175;-76
2022/05/23 07:31:56;;;;;;;3.73;1.53;;;18.70;35.00;;;;;;5056832;28;20168;-76
2022/05/23 07:34:22;;;;;;;3.93;1.20;;;18.80;1.00;;;;;;5055221;28;20222;-76
2022/05/23 07:36:49;;;;;;;2.33;1.50;;;18.80;99.90;;;;;;5055488;28;20641;-76
2022/05/23 07:39:15;;;;;;;4.00;1.40;;;18.90;1.00;;;;;;5056750;28;20168;-77
2022/05/23 07:41:43;;;;;;;3.60;1.90;;;18.80;1.00;;;;;;5056502;28;20171;-77
2022/05/23 07:44:10;;;;;;;4.87;1.70;;;19.00;1.00;;;;;;5056733;28;20214;-77
2022/05/23 07:46:37;;;;;;;2.07;1.50;;;19.10;1.00;;;;;;5055808;28;20183;-76
2022/05/23 07:49:04;;;;;;;3.57;1.63;;;19.10;1.00;;;;;;5057973;28;20285;-77
2022/05/23 07:51:30;;;;;;;5.57;1.77;;;19.20;1.00;;;;;;5057466;28;20171;-77
2022/05/23 08:02:11;;;;;;;7.73;1.63;;;19.50;1.00;;;;;;5057310;28;20214;-77
2022/05/23 08:04:36;;;;;;;3.67;1.63;;;19.60;1.00;;;;;;5057678;28;20329;-77
2022/05/23 08:07:02;;;;;;;3.87;1.60;;;19.60;1.00;;;;;;5055596;28;20233;-77
2022/05/23 08:09:28;;;;;;;3.33;1.73;;;19.60;1.00;;;;;;5054952;28;20653;-77
2022/05/23 08:11:55;;;;;;;3.03;1.67;;;19.70;1.00;;;;;;5056298;28;20199;-77
2022/05/23 08:14:21;;;;;;;3.23;1.60;;;19.60;1.00;;;;;;5054785;28;20252;-77
2022/05/23 08:16:47;;;;;;;5.87;1.80;;;19.70;1.00;;;;;;5056456;28;20167;-76
2022/05/23 08:19:13;;;;;;;3.07;1.53;;;19.60;1.00;;;;;;5056356;28;20167;-77
2022/05/23 08:21:51;;;;;;;2.57;1.50;;;19.70;99.90;;;;;;5054812;28;20226;-76
2022/05/23 08:24:17;;;;;;;4.07;1.70;;;19.70;99.90;;;;;;5055198;28;20286;-77
2022/05/23 08:26:43;;;;;;;2.90;1.63;;;19.80;99.90;;;;;;5055524;28;20191;-77
2022/05/23 08:29:09;;;;;;;2.90;1.70;;;19.80;99.90;;;;;;5056272;28;20177;-76
2022/05/23 08:31:36;;;;;;;3.43;1.50;;;19.90;84.40;;;;;;5054572;28;20556;-77
2022/05/23 08:34:01;;;;;;;6.07;1.80;;;20.00;99.90;;;;;;5055520;28;20208;-77
2022/05/23 08:36:27;;;;;;;2.57;1.60;;;20.00;1.00;;;;;;5054716;28;20221;-76
2022/05/23 08:38:52;;;;;;;3.97;1.93;;;20.10;1.00;;;;;;5055290;28;20229;-76
2022/05/23 08:41:34;;;;;;;6.87;1.80;;;20.20;99.90;;;;;;5056739;28;20521;-77
2022/05/23 08:44:11;;;;;;;3.33;1.60;;;20.30;99.90;;;;;;5055634;28;20655;-76
2022/05/23 08:47:00;;;;;;;3.23;1.40;;;20.40;99.90;;;;;;5054349;28;20722;-77
2022/05/23 08:49:56;;;;;;;9.47;1.87;;;20.50;99.90;;;;;;5055622;28;20206;-76
2022/05/23 08:52:58;;;;;;;2.57;1.73;;;20.50;99.90;;;;;;5055806;28;20242;-76
2022/05/23 08:55:29;;;;;;;3.17;1.50;;;20.60;99.90;;;;;;5055044;28;20187;-77
2022/05/23 08:58:06;;;;;;;3.77;1.80;;;20.60;99.90;;;;;;5055700;28;20182;-77
2022/05/23 09:00:38;;;;;;;2.87;1.50;;;20.80;99.90;;;;;;5056030;28;20163;-77
2022/05/23 09:03:28;;;;;;;2.77;1.70;;;20.80;99.90;;;;;;5055685;28;20556;-77
2022/05/23 09:06:02;;;;;;;3.83;1.67;;;20.80;99.90;;;;;;5055293;28;20179;-76
2022/05/23 09:08:33;;;;;;;3.43;1.50;;;20.80;7.10;;;;;;5055212;28;20664;-78
2022/05/23 09:11:39;;;;;;;3.07;1.83;;;20.90;99.90;;;;;;5054223;28;20592;-77
2022/05/23 09:14:06;;;;;;;3.13;1.70;;;20.90;70.10;;;;;;5035390;28;20199;-76
2022/05/23 09:16:46;;;;;;;7.43;1.50;;;21.00;1.00;;;;;;5048615;28;20233;-76
2022/05/23 09:19:17;;;;;;;3.90;1.70;;;21.00;99.90;;;;;;5048537;28;20192;-77
2022/05/23 09:24:54;;;;;;;2.83;1.50;;;21.10;1.00;;;;;;5046623;28;20225;-77
2022/05/23 09:27:39;;;;;;;2.53;1.70;;;21.20;1.00;;;;;;5041760;28;20600;-77
2022/05/23 09:30:11;;;;;;;4.00;1.73;;;21.40;99.90;;;;;;5041040;28;20197;-77
2022/05/23 09:32:57;;;;;;;2.33;1.60;;;21.60;99.90;;;;;;5046356;28;20211;-77
2022/05/23 09:35:54;;;;;;;3.10;1.50;;;21.70;1.00;;;;;;5036923;28;20199;-77
2022/05/23 09:38:27;;;;;;;5.40;1.50;;;21.90;2.30;;;;;;5048060;28;20194;-77
2022/05/23 09:40:53;;;;;;;4.57;1.80;;;22.00;99.90;;;;;;5045819;28;20286;-77
2022/05/23 09:49:21;;;;;;;3.50;1.67;;;22.00;99.90;;;;;;5044344;28;20604;-77
2022/05/23 09:51:59;;;;;;;4.30;1.93;;;22.00;99.90;;;;;;5046706;28;20270;-77
2022/05/23 09:54:54;;;;;;;3.97;1.53;;;22.10;99.90;;;;;;5045792;28;20204;-76
2022/05/23 09:57:50;;;;;;;3.10;1.70;;;22.20;99.90;;;;;;5041039;28;20263;-77
2022/05/23 10:00:17;;;;;;;2.27;1.50;;;22.40;1.00;;;;;;5046755;28;20270;-77
2022/05/23 10:03:02;;;;;;;3.53;1.80;;;22.50;99.90;;;;;;5051495;28;20673;-77
2022/05/23 10:05:28;;;;;;;3.57;1.50;;;22.50;99.90;;;;;;5050704;28;20592;-77
2022/05/23 10:07:58;;;;;;;3.47;1.57;;;22.50;99.90;;;;;;5054747;28;20168;-78
2022/05/23 10:10:27;;;;;;;2.37;1.50;;;22.50;1.00;;;;;;5046379;28;20174;-80
2022/05/23 10:13:25;;;;;;;1.63;1.23;;;22.60;1.00;;;;;;5048335;28;20179;-77
2022/05/23 10:15:54;;;;;;;2.30;1.30;;;22.60;1.00;;;;;;5044630;28;20183;-77
2022/05/23 10:18:29;;;;;;;2.67;1.37;;;22.70;1.00;;;;;;5044323;28;20988;-78
2022/05/23 10:20:56;;;;;;;5.67;1.70;;;22.80;99.90;;;;;;5047622;28;20648;-79
2022/05/23 10:23:33;;;;;;;2.03;1.50;;;22.90;99.90;;;;;;5050248;28;20218;-78
2022/05/23 10:26:23;;;;;;;3.63;1.70;;;22.90;99.90;;;;;;5045010;28;20646;-78
2022/05/23 10:29:15;;;;;;;4.57;1.53;;;23.00;1.00;;;;;;5041327;28;20188;-77
2022/05/23 10:31:46;;;;;;;3.20;1.40;;;23.10;1.00;;;;;;5045062;28;20174;-77
2022/05/23 10:34:37;;;;;;;1.97;1.20;;;23.20;1.00;;;;;;5042894;28;20212;-78
2022/05/23 10:37:07;;;;;;;3.77;1.70;;;23.20;99.90;;;;;;5054135;28;20547;-77
2022/05/23 10:42:47;;;;;;;4.13;1.40;;;23.20;1.00;;;;;;5071303;22;20236;-74
2022/05/23 10:45:41;;;;;;;2.93;1.50;;;23.10;1.00;;;;;;5066497;28;20229;-73
2022/05/23 10:48:21;;;;;;;2.47;1.63;;;23.20;1.00;;;;;;5067169;28;20175;-75
2022/05/23 10:51:15;;;;;;;6.00;1.60;;;23.30;99.90;;;;;;5063666;28;20175;-75
2022/05/23 10:54:09;;;;;;;5.63;1.60;;;23.30;99.90;;;;;;5039544;28;20689;-75
2022/05/23 10:56:37;;;;;;;2.77;1.60;;;23.40;99.90;;;;;;5044469;28;20177;-76
2022/05/23 10:59:09;;;;;;;4.63;1.77;;;23.40;1.00;;;;;;5047461;28;20229;-74
2022/05/23 11:01:45;;;;;;;5.40;1.90;;;23.50;1.00;;;;;;5050286;28;20246;-73
2022/05/23 11:04:32;;;;;;;2.40;1.80;;;23.50;1.00;;;;;;5053093;28;20301;-74
2022/05/23 11:07:34;;;;;;;3.83;1.47;;;23.50;1.00;;;;;;5052944;28;20163;-74
2022/05/23 11:10:28;;;;;;;5.57;1.70;;;23.50;88.20;;;;;;5052981;28;20163;-74
2022/05/23 11:13:11;;;;;;;3.20;1.40;;;23.50;1.00;;;;;;5053216;28;20187;-74
2022/05/23 11:15:52;;;;;;;4.10;1.60;;;23.60;1.00;;;;;;5051699;28;20170;-74
2022/05/23 11:18:56;;;;;;;4.73;1.60;;;23.70;99.90;;;;;;5053071;28;20164;-74
2022/05/23 11:21:43;;;;;;;1.90;1.43;;;23.70;99.90;;;;;;5051617;28;20572;-75
2022/05/23 11:24:18;;;;;;;3.57;1.60;;;23.80;99.90;;;;;;5053411;28;20229;-74
2022/05/23 11:26:52;;;;;;;7.40;1.30;;;23.90;99.90;;;;;;5052887;28;20159;-73
2022/05/23 11:35:03;;;;;;;2.00;1.60;;;24.00;1.00;;;;;;5051985;28;20162;-74
2022/05/23 11:37:45;;;;;;;2.80;1.33;;;24.10;12.80;;;;;;5053236;28;20176;-75
2022/05/23 11:40:37;;;;;;;3.13;1.37;;;24.20;99.90;;;;;;5051446;28;20171;-75
2022/05/23 11:43:10;;;;;;;3.57;1.80;;;24.20;1.00;;;;;;5052432;28;20226;-76
2022/05/23 11:45:57;;;;;;;3.13;1.60;;;24.30;1.00;;;;;;5051368;28;20182;-74
2022/05/23 11:48:40;;;;;;;7.40;1.92;;;24.40;1.00;;;;;;5053070;28;20174;-75
2022/05/23 11:51:12;;;;;;;3.77;1.60;;;24.40;1.00;;;;;;5052543;28;20715;-75
2022/05/23 11:53:42;;;;;;;7.07;1.70;;;24.40;1.00;;;;;;5053085;28;20196;-75
2022/05/23 11:56:10;;;;;;;3.00;1.67;;;24.40;1.00;;;;;;5067998;28;20175;-74
2022/05/23 11:58:47;;;;;;;5.57;2.00;;;24.40;1.00;;;;;;5052601;28;20172;-75
2022/05/23 12:01:25;;;;;;;3.50;1.83;;;24.60;1.00;;;;;;5052508;28;20187;-75
2022/05/23 12:03:57;;;;;;;5.10;1.90;;;24.60;1.00;;;;;;5051141;28;20194;-74
2022/05/23 12:06:29;;;;;;;4.90;1.70;;;24.70;1.00;;;;;;5052726;28;20171;-74
2022/05/23 12:08:57;;;;;;;2.33;1.50;;;24.70;1.00;;;;;;5054799;28;20163;-74
2022/05/23 12:11:34;;;;;;;2.20;1.40;;;24.80;1.00;;;;;;5056227;28;20217;-75
2022/05/23 12:14:11;;;;;;;1.83;1.30;;;24.90;1.00;;;;;;5056264;28;20253;-75
2022/05/23 12:16:41;;;;;;;3.17;1.50;;;25.00;1.00;;;;;;5056112;28;20178;-74
2022/05/23 12:19:14;;;;;;;4.60;1.60;;;25.10;1.00;;;;;;5056032;28;20180;-75
2022/05/23 12:21:43;;;;;;;3.78;1.55;;;25.00;1.00;;;;;;5056109;28;20192;-74
2022/05/23 12:24:24;;;;;;;5.57;1.67;;;25.20;99.90;;;;;;5055441;28;20203;-74
2022/05/23 12:26:55;;;;;;;10.93;2.80;;;25.20;1.00;;;;;;5056151;28;20167;-73
2022/05/23 12:29:24;;;;;;;5.65;2.08;;;25.20;1.00;;;;;;5056187;28;20156;-73
2022/05/23 12:32:05;;;;;;;2.95;1.65;;;25.00;1.00;;;;;;5055996;28;20187;-74
2022/05/23 12:34:33;;;;;;;2.22;1.60;;;25.00;1.00;;;;;;5054451;28;20225;-73
2022/05/23 12:37:00;;;;;;;2.22;1.48;;;25.10;1.00;;;;;;5054489;28;20183;-74
2022/05/23 12:39:57;;;;;;;2.60;1.55;;;25.00;1.00;;;;;;5055648;28;20179;-74
2022/05/23 12:43:03;;;;;;;3.92;2.00;;;25.20;1.00;;;;;;5055372;28;20203;-74
2022/05/23 12:45:59;;;;;;;2.65;1.63;;;25.30;1.00;;;;;;5015793;28;20278;-73
2022/05/23 12:48:36;;;;;;;3.80;1.90;;;25.40;1.00;;;;;;5055466;28;20175;-74
2022/05/23 12:51:28;;;;;;;2.75;1.52;;;25.20;1.00;;;;;;5055512;28;20287;-74
2022/05/23 12:54:13;;;;;;;3.42;1.70;;;25.20;1.00;;;;;;5056211;28;20514;-74
2022/05/23 12:56:57;;;;;;;2.50;1.35;;;25.10;99.90;;;;;;5055475;28;20174;-74
2022/05/23 12:59:35;;;;;;;4.45;1.92;;;25.00;6.10;;;;;;5054148;28;20175;-74
2022/05/23 13:02:05;;;;;;;3.13;1.65;;;24.90;36.40;;;;;;5055174;28;20684;-74
2022/05/23 13:04:52;;;;;;;3.30;1.80;;;24.80;99.90;;;;;;5053908;28;20549;-73
2022/05/23 13:07:33;;;;;;;5.43;1.83;;;24.60;99.90;;;;;;5053983;28;20529;-73
2022/05/23 13:10:03;;;;;;;3.50;1.73;;;24.50;99.90;;;;;;5055327;28;20634;-74
2022/05/23 13:12:41;;;;;;;4.83;1.60;;;24.40;1.00;;;;;;5055035;28;20559;-74
2022/05/23 13:15:08;;;;;;;2.45;2.00;;;24.30;1.00;;;;;;5055024;28;20172;-74
2022/05/23 13:17:44;;;;;;;3.67;1.67;;;24.20;1.00;;;;;;5054927;28;20258;-74
2022/05/23 13:23:09;;;;;;;4.07;1.70;;;24.00;99.90;;;;;;5055049;28;20219;-73
2022/05/23 13:25:36;;;;;;;2.90;2.00;;;23.90;1.00;;;;;;5055018;28;20274;-74
2022/05/23 13:28:07;;;;;;;2.47;1.80;;;23.80;99.90;;;;;;5055336;28;20167;-74
2022/05/23 13:30:45;;;;;;;3.33;1.98;;;23.70;1.00;;;;;;5055058;28;20163;-74
2022/05/23 13:33:17;;;;;;;5.17;2.27;;;23.60;1.00;;;;;;5053688;28;20521;-74
2022/05/23 13:35:44;;;;;;;4.57;1.97;;;23.50;99.90;;;;;;5054628;28;20156;-73
2022/05/23 13:38:17;;;;;;;6.83;2.60;;;23.40;1.00;;;;;;5054566;28;20178;-74
2022/05/23 13:40:46;;;;;;;4.00;2.40;;;23.30;99.90;;;;;;5053200;28;20172;-73
2022/05/23 13:43:21;;;;;;;3.10;2.00;;;23.30;1.00;;;;;;5053104;28;20608;-74
2022/05/23 13:46:02;;;;;;;4.57;2.07;;;23.20;99.90;;;;;;5053209;28;20562;-73
2022/05/23 13:48:53;;;;;;;5.27;2.20;;;23.10;68.60;;;;;;5069840;28;20174;-73
2022/05/23 13:51:32;;;;;;;7.43;2.50;;;23.00;99.90;;;;;;5046888;28;20211;-73
2022/05/23 13:54:16;;;;;;;6.47;2.37;;;22.90;1.00;;;;;;5054620;28;20220;-74
2022/05/23 13:56:47;;;;;;;5.20;3.00;;;22.80;1.00;;;;;;5054257;28;20684;-73
2022/05/23 13:59:21;;;;;;;8.23;2.50;;;22.70;99.90;;;;;;5054508;28;20645;-74
2022/05/23 14:01:52;;;;;;;8.70;2.77;;;22.60;1.00;;;;;;5054108;28;20191;-74
2022/05/23 14:04:23;;;;;;;5.43;2.30;;;22.50;1.00;;;;;;5054178;28;20568;-74
2022/05/23 14:06:56;;;;;;;6.20;2.87;;;22.40;1.00;;;;;;5054533;28;20613;-74
2022/05/23 14:09:22;;;;;;;6.80;2.33;;;22.20;55.90;;;;;;5052827;28;20190;-74
2022/05/23 14:11:54;;;;;;;7.07;2.70;;;22.20;99.90;;;;;;5053874;28;20246;-74
2022/05/23 14:14:44;;;;;;;3.77;2.37;;;22.20;99.90;;;;;;5052696;28;20180;-75